sensor_id;sensor_type;location;lat;lon;timestamp;P1;durP1;ratioP1;P2;durP2;ratioP2
27269;SDS011;14769;56.934;24.176;2022-11-20T00:00:23;15.52;;;7.28;;
27269;SDS011;14769;56.934;24.176;2022-11-20T00:01:38;14.07;;;7.97;;
27269;SDS011;14769;56.934;24.176;2022-11-20T00:02:56;12.57;;;8.02;;
27269;SDS011;14769;56.934;24.176;2022-11-20T00:03:59;12.75;;;8.20;;
27269;SDS011;14769;56.934;24.176;2022-11-20T00:06:19;12.05;;;7.07;;
27269;SDS011;14769;56.934;24.176;2022-11-20T00:07:34;11.23;;;6.90;;
27269;SDS011;14769;56.934;24.176;2022-11-20T00:08:44;11.02;;;7.03;;
27269;SDS011;14769;56.934;24.176;2022-11-20T00:09:59;11.45;;;7.38;;
27269;SDS011;14769;56.934;24.176;2022-11-20T00:11:23;11.98;;;7.40;;
27269;SDS011;14769;56.934;24.176;2022-11-20T00:13:50;15.35;;;7.38;;
27269;SDS011;14769;56.934;24.176;2022-11-20T00:15:02;12.50;;;6.90;;
27269;SDS011;14769;56.934;24.176;2022-11-20T00:16:18;9.95;;;6.80;;
27269;SDS011;14769;56.934;24.176;2022-11-20T00:17:25;10.85;;;6.65;;
27269;SDS011;14769;56.934;24.176;2022-11-20T00:18:34;12.55;;;7.22;;
27269;SDS011;14769;56.934;24.176;2022-11-20T00:19:45;13.63;;;7.38;;
27269;SDS011;14769;56.934;24.176;2022-11-20T00:21:06;12.50;;;7.68;;
27269;SDS011;14769;56.934;24.176;2022-11-20T00:22:38;12.10;;;6.85;;
27269;SDS011;14769;56.934;24.176;2022-11-20T00:23:55;11.98;;;7.18;;
27269;SDS011;14769;56.934;24.176;2022-11-20T00:25:14;14.95;;;6.70;;
27269;SDS011;14769;56.934;24.176;2022-11-20T00:26:29;12.75;;;6.70;;
27269;SDS011;14769;56.934;24.176;2022-11-20T00:27:42;14.02;;;6.82;;
27269;SDS011;14769;56.934;24.176;2022-11-20T00:29:01;11.40;;;6.97;;
27269;SDS011;14769;56.934;24.176;2022-11-20T00:30:09;11.48;;;7.53;;
27269;SDS011;14769;56.934;24.176;2022-11-20T00:31:15;11.70;;;7.28;;
27269;SDS011;14769;56.934;24.176;2022-11-20T00:32:27;12.63;;;7.15;;
27269;SDS011;14769;56.934;24.176;2022-11-20T00:33:45;13.55;;;7.45;;
27269;SDS011;14769;56.934;24.176;2022-11-20T00:34:53;13.35;;;7.45;;
27269;SDS011;14769;56.934;24.176;2022-11-20T00:36:14;12.00;;;6.88;;
27269;SDS011;14769;56.934;24.176;2022-11-20T00:37:34;10.20;;;6.07;;
27269;SDS011;14769;56.934;24.176;2022-11-20T00:38:54;10.60;;;6.78;;
27269;SDS011;14769;56.934;24.176;2022-11-20T00:39:59;11.85;;;6.78;;
27269;SDS011;14769;56.934;24.176;2022-11-20T00:41:07;10.30;;;6.40;;
27269;SDS011;14769;56.934;24.176;2022-11-20T00:42:21;11.82;;;6.70;;
27269;SDS011;14769;56.934;24.176;2022-11-20T00:43:28;10.90;;;6.47;;
27269;SDS011;14769;56.934;24.176;2022-11-20T00:44:59;11.88;;;6.40;;
27269;SDS011;14769;56.934;24.176;2022-11-20T00:46:08;9.70;;;6.35;;
27269;SDS011;14769;56.934;24.176;2022-11-20T00:49:30;12.05;;;6.40;;
27269;SDS011;14769;56.934;24.176;2022-11-20T00:51:38;10.68;;;5.38;;
27269;SDS011;14769;56.934;24.176;2022-11-20T00:52:43;9.90;;;6.07;;
27269;SDS011;14769;56.934;24.176;2022-11-20T00:53:54;10.57;;;6.10;;
27269;SDS011;14769;56.934;24.176;2022-11-20T00:55:03;10.13;;;6.53;;
27269;SDS011;14769;56.934;24.176;2022-11-20T00:56:21;11.32;;;6.53;;
27269;SDS011;14769;56.934;24.176;2022-11-20T00:57:25;10.30;;;6.22;;
27269;SDS011;14769;56.934;24.176;2022-11-20T00:58:38;10.63;;;6.30;;
27269;SDS011;14769;56.934;24.176;2022-11-20T00:59:49;8.70;;;6.00;;
27269;SDS011;14769;56.934;24.176;2022-11-20T01:01:20;9.90;;;6.13;;
27269;SDS011;14769;56.934;24.176;2022-11-20T01:02:36;10.18;;;6.10;;
27269;SDS011;14769;56.934;24.176;2022-11-20T01:04:03;12.32;;;6.68;;
27269;SDS011;14769;56.934;24.176;2022-11-20T01:05:12;10.07;;;6.50;;
27269;SDS011;14769;56.934;24.176;2022-11-20T01:06:23;10.43;;;6.57;;
27269;SDS011;14769;56.934;24.176;2022-11-20T01:07:36;10.35;;;6.68;;
27269;SDS011;14769;56.934;24.176;2022-11-20T01:08:38;10.75;;;6.72;;
27269;SDS011;14769;56.934;24.176;2022-11-20T01:09:42;11.05;;;6.55;;
27269;SDS011;14769;56.934;24.176;2022-11-20T01:10:46;10.35;;;6.90;;
27269;SDS011;14769;56.934;24.176;2022-11-20T01:11:49;9.98;;;6.50;;
27269;SDS011;14769;56.934;24.176;2022-11-20T01:12:51;11.13;;;6.88;;
27269;SDS011;14769;56.934;24.176;2022-11-20T01:14:15;9.50;;;5.80;;
27269;SDS011;14769;56.934;24.176;2022-11-20T01:15:19;10.40;;;6.57;;
27269;SDS011;14769;56.934;24.176;2022-11-20T01:16:26;11.27;;;7.22;;
27269;SDS011;14769;56.934;24.176;2022-11-20T01:17:36;11.00;;;6.90;;
27269;SDS011;14769;56.934;24.176;2022-11-20T01:18:56;11.23;;;7.22;;
27269;SDS011;14769;56.934;24.176;2022-11-20T01:20:18;11.05;;;6.57;;
27269;SDS011;14769;56.934;24.176;2022-11-20T01:21:27;13.10;;;7.07;;
27269;SDS011;14769;56.934;24.176;2022-11-20T01:22:46;9.93;;;6.57;;
27269;SDS011;14769;56.934;24.176;2022-11-20T01:23:53;10.90;;;7.13;;
27269;SDS011;14769;56.934;24.176;2022-11-20T01:25:11;11.45;;;6.93;;
27269;SDS011;14769;56.934;24.176;2022-11-20T01:26:36;10.57;;;6.45;;
27269;SDS011;14769;56.934;24.176;2022-11-20T01:27:56;12.77;;;7.78;;
27269;SDS011;14769;56.934;24.176;2022-11-20T01:34:11;15.95;;;6.85;;
27269;SDS011;14769;56.934;24.176;2022-11-20T01:35:28;11.65;;;6.93;;
27269;SDS011;14769;56.934;24.176;2022-11-20T01:37:02;13.25;;;7.45;;
27269;SDS011;14769;56.934;24.176;2022-11-20T01:38:56;12.15;;;7.45;;
27269;SDS011;14769;56.934;24.176;2022-11-20T01:40:11;14.55;;;8.00;;
27269;SDS011;14769;56.934;24.176;2022-11-20T01:41:14;14.27;;;8.20;;
27269;SDS011;14769;56.934;24.176;2022-11-20T01:42:38;13.82;;;7.95;;
27269;SDS011;14769;56.934;24.176;2022-11-20T01:44:08;12.63;;;7.43;;
27269;SDS011;14769;56.934;24.176;2022-11-20T01:47:05;14.35;;;8.02;;
27269;SDS011;14769;56.934;24.176;2022-11-20T01:48:14;12.60;;;7.72;;
27269;SDS011;14769;56.934;24.176;2022-11-20T01:49:29;14.13;;;7.72;;
27269;SDS011;14769;56.934;24.176;2022-11-20T01:50:55;13.88;;;8.07;;
27269;SDS011;14769;56.934;24.176;2022-11-20T01:52:30;14.05;;;7.80;;
27269;SDS011;14769;56.934;24.176;2022-11-20T01:54:13;13.13;;;7.15;;
27269;SDS011;14769;56.934;24.176;2022-11-20T01:56:16;14.50;;;7.85;;
27269;SDS011;14769;56.934;24.176;2022-11-20T01:58:10;14.32;;;8.00;;
27269;SDS011;14769;56.934;24.176;2022-11-20T02:00:00;13.25;;;7.85;;
27269;SDS011;14769;56.934;24.176;2022-11-20T02:01:36;16.67;;;8.90;;
27269;SDS011;14769;56.934;24.176;2022-11-20T02:03:34;19.25;;;8.80;;
27269;SDS011;14769;56.934;24.176;2022-11-20T02:10:15;16.45;;;7.82;;
27269;SDS011;14769;56.934;24.176;2022-11-20T02:12:06;16.35;;;8.27;;
27269;SDS011;14769;56.934;24.176;2022-11-20T02:15:45;18.15;;;9.00;;
27269;SDS011;14769;56.934;24.176;2022-11-20T02:17:33;21.05;;;8.75;;
27269;SDS011;14769;56.934;24.176;2022-11-20T02:26:19;17.73;;;9.00;;
27269;SDS011;14769;56.934;24.176;2022-11-20T02:32:35;16.80;;;9.10;;
27269;SDS011;14769;56.934;24.176;2022-11-20T02:34:14;17.30;;;9.40;;
27269;SDS011;14769;56.934;24.176;2022-11-20T02:36:03;17.13;;;9.77;;
27269;SDS011;14769;56.934;24.176;2022-11-20T02:40:14;17.15;;;9.43;;
27269;SDS011;14769;56.934;24.176;2022-11-20T02:42:30;16.90;;;9.27;;
27269;SDS011;14769;56.934;24.176;2022-11-20T02:46:09;16.77;;;9.20;;
27269;SDS011;14769;56.934;24.176;2022-11-20T02:47:44;15.43;;;9.00;;
27269;SDS011;14769;56.934;24.176;2022-11-20T02:49:19;15.65;;;9.25;;
27269;SDS011;14769;56.934;24.176;2022-11-20T02:50:50;19.58;;;9.70;;
27269;SDS011;14769;56.934;24.176;2022-11-20T02:52:26;16.60;;;9.13;;
27269;SDS011;14769;56.934;24.176;2022-11-20T02:54:03;17.58;;;9.68;;
27269;SDS011;14769;56.934;24.176;2022-11-20T02:55:05;18.17;;;10.02;;
27269;SDS011;14769;56.934;24.176;2022-11-20T02:56:15;16.88;;;9.85;;
27269;SDS011;14769;56.934;24.176;2022-11-20T02:57:21;19.95;;;10.15;;
27269;SDS011;14769;56.934;24.176;2022-11-20T02:58:30;17.40;;;9.90;;
27269;SDS011;14769;56.934;24.176;2022-11-20T02:59:50;15.88;;;9.88;;
27269;SDS011;14769;56.934;24.176;2022-11-20T03:05:17;16.27;;;9.30;;
27269;SDS011;14769;56.934;24.176;2022-11-20T03:06:20;17.55;;;9.70;;
27269;SDS011;14769;56.934;24.176;2022-11-20T03:07:29;13.88;;;8.75;;
27269;SDS011;14769;56.934;24.176;2022-11-20T03:08:39;16.27;;;9.85;;
27269;SDS011;14769;56.934;24.176;2022-11-20T03:09:50;17.00;;;10.10;;
27269;SDS011;14769;56.934;24.176;2022-11-20T03:15:06;17.52;;;9.50;;
27269;SDS011;14769;56.934;24.176;2022-11-20T03:16:12;14.93;;;10.02;;
27269;SDS011;14769;56.934;24.176;2022-11-20T03:17:22;16.30;;;9.80;;
27269;SDS011;14769;56.934;24.176;2022-11-20T03:18:37;18.00;;;9.93;;
27269;SDS011;14769;56.934;24.176;2022-11-20T03:19:49;17.98;;;10.07;;
27269;SDS011;14769;56.934;24.176;2022-11-20T03:21:16;16.88;;;9.90;;
27269;SDS011;14769;56.934;24.176;2022-11-20T03:24:15;18.08;;;10.25;;
27269;SDS011;14769;56.934;24.176;2022-11-20T03:25:19;17.67;;;9.88;;
27269;SDS011;14769;56.934;24.176;2022-11-20T03:26:26;18.55;;;10.80;;
27269;SDS011;14769;56.934;24.176;2022-11-20T03:27:33;17.67;;;10.52;;
27269;SDS011;14769;56.934;24.176;2022-11-20T03:28:36;18.80;;;11.10;;
27269;SDS011;14769;56.934;24.176;2022-11-20T03:29:42;22.52;;;10.95;;
27269;SDS011;14769;56.934;24.176;2022-11-20T03:30:58;16.40;;;10.73;;
27269;SDS011;14769;56.934;24.176;2022-11-20T03:32:24;17.40;;;10.13;;
27269;SDS011;14769;56.934;24.176;2022-11-20T03:33:30;17.80;;;10.55;;
27269;SDS011;14769;56.934;24.176;2022-11-20T03:34:44;20.33;;;10.98;;
27269;SDS011;14769;56.934;24.176;2022-11-20T03:35:51;20.60;;;11.57;;
27269;SDS011;14769;56.934;24.176;2022-11-20T03:37:05;21.15;;;11.68;;
27269;SDS011;14769;56.934;24.176;2022-11-20T03:38:08;17.10;;;10.93;;
27269;SDS011;14769;56.934;24.176;2022-11-20T03:39:26;20.30;;;11.85;;
27269;SDS011;14769;56.934;24.176;2022-11-20T03:40:31;19.70;;;11.23;;
27269;SDS011;14769;56.934;24.176;2022-11-20T03:41:38;19.85;;;11.30;;
27269;SDS011;14769;56.934;24.176;2022-11-20T03:42:43;19.88;;;11.27;;
27269;SDS011;14769;56.934;24.176;2022-11-20T03:43:50;17.73;;;10.77;;
27269;SDS011;14769;56.934;24.176;2022-11-20T03:45:03;18.38;;;11.15;;
27269;SDS011;14769;56.934;24.176;2022-11-20T03:46:07;20.45;;;11.50;;
27269;SDS011;14769;56.934;24.176;2022-11-20T03:47:09;19.45;;;10.82;;
27269;SDS011;14769;56.934;24.176;2022-11-20T03:48:11;19.58;;;11.77;;
27269;SDS011;14769;56.934;24.176;2022-11-20T03:49:15;18.90;;;11.70;;
27269;SDS011;14769;56.934;24.176;2022-11-20T03:50:21;22.70;;;11.82;;
27269;SDS011;14769;56.934;24.176;2022-11-20T03:51:24;21.25;;;12.23;;
27269;SDS011;14769;56.934;24.176;2022-11-20T03:52:27;22.48;;;12.07;;
27269;SDS011;14769;56.934;24.176;2022-11-20T03:53:30;24.23;;;12.88;;
27269;SDS011;14769;56.934;24.176;2022-11-20T03:54:32;21.00;;;11.35;;
27269;SDS011;14769;56.934;24.176;2022-11-20T03:55:36;20.65;;;11.57;;
27269;SDS011;14769;56.934;24.176;2022-11-20T03:56:38;19.45;;;12.15;;
27269;SDS011;14769;56.934;24.176;2022-11-20T03:57:42;20.98;;;13.07;;
27269;SDS011;14769;56.934;24.176;2022-11-20T03:58:46;17.77;;;11.48;;
27269;SDS011;14769;56.934;24.176;2022-11-20T03:59:50;17.77;;;11.05;;
27269;SDS011;14769;56.934;24.176;2022-11-20T04:00:52;19.48;;;10.98;;
27269;SDS011;14769;56.934;24.176;2022-11-20T04:01:55;17.50;;;10.63;;
27269;SDS011;14769;56.934;24.176;2022-11-20T04:02:59;20.30;;;12.07;;
27269;SDS011;14769;56.934;24.176;2022-11-20T04:04:02;20.08;;;11.82;;
27269;SDS011;14769;56.934;24.176;2022-11-20T04:05:06;18.45;;;11.68;;
27269;SDS011;14769;56.934;24.176;2022-11-20T04:06:11;20.42;;;11.18;;
27269;SDS011;14769;56.934;24.176;2022-11-20T04:07:22;22.08;;;11.75;;
27269;SDS011;14769;56.934;24.176;2022-11-20T04:08:24;17.02;;;10.73;;
27269;SDS011;14769;56.934;24.176;2022-11-20T04:09:27;18.13;;;11.75;;
27269;SDS011;14769;56.934;24.176;2022-11-20T04:10:31;17.27;;;11.23;;
27269;SDS011;14769;56.934;24.176;2022-11-20T04:11:35;19.23;;;11.82;;
27269;SDS011;14769;56.934;24.176;2022-11-20T04:12:43;18.70;;;10.68;;
27269;SDS011;14769;56.934;24.176;2022-11-20T04:13:46;20.45;;;10.80;;
27269;SDS011;14769;56.934;24.176;2022-11-20T04:14:52;21.02;;;11.52;;
27269;SDS011;14769;56.934;24.176;2022-11-20T04:15:56;18.52;;;11.27;;
27269;SDS011;14769;56.934;24.176;2022-11-20T04:16:59;18.55;;;11.55;;
27269;SDS011;14769;56.934;24.176;2022-11-20T04:18:12;21.83;;;11.90;;
27269;SDS011;14769;56.934;24.176;2022-11-20T04:19:20;20.08;;;11.32;;
27269;SDS011;14769;56.934;24.176;2022-11-20T04:20:47;19.90;;;11.05;;
27269;SDS011;14769;56.934;24.176;2022-11-20T04:22:05;20.50;;;11.13;;
27269;SDS011;14769;56.934;24.176;2022-11-20T04:23:10;18.13;;;10.75;;
27269;SDS011;14769;56.934;24.176;2022-11-20T04:24:13;18.90;;;10.73;;
27269;SDS011;14769;56.934;24.176;2022-11-20T04:25:26;20.92;;;12.43;;
27269;SDS011;14769;56.934;24.176;2022-11-20T04:26:31;20.98;;;11.90;;
27269;SDS011;14769;56.934;24.176;2022-11-20T04:27:34;17.58;;;11.35;;
27269;SDS011;14769;56.934;24.176;2022-11-20T04:28:37;22.45;;;11.65;;
27269;SDS011;14769;56.934;24.176;2022-11-20T04:29:40;19.30;;;11.93;;
27269;SDS011;14769;56.934;24.176;2022-11-20T04:30:45;22.67;;;11.95;;
27269;SDS011;14769;56.934;24.176;2022-11-20T04:31:50;20.80;;;11.38;;
27269;SDS011;14769;56.934;24.176;2022-11-20T04:32:54;17.05;;;11.40;;
27269;SDS011;14769;56.934;24.176;2022-11-20T04:34:00;20.33;;;12.18;;
27269;SDS011;14769;56.934;24.176;2022-11-20T04:35:05;20.27;;;12.20;;
27269;SDS011;14769;56.934;24.176;2022-11-20T04:36:12;19.27;;;12.40;;
27269;SDS011;14769;56.934;24.176;2022-11-20T04:37:17;22.73;;;12.20;;
27269;SDS011;14769;56.934;24.176;2022-11-20T04:38:19;19.13;;;11.55;;
27269;SDS011;14769;56.934;24.176;2022-11-20T04:39:24;18.33;;;11.68;;
27269;SDS011;14769;56.934;24.176;2022-11-20T04:40:28;18.52;;;11.25;;
27269;SDS011;14769;56.934;24.176;2022-11-20T04:41:34;18.85;;;12.13;;
27269;SDS011;14769;56.934;24.176;2022-11-20T04:42:37;19.80;;;12.02;;
27269;SDS011;14769;56.934;24.176;2022-11-20T04:43:41;20.00;;;12.05;;
27269;SDS011;14769;56.934;24.176;2022-11-20T04:44:44;20.08;;;11.77;;
27269;SDS011;14769;56.934;24.176;2022-11-20T04:45:52;18.77;;;10.93;;
27269;SDS011;14769;56.934;24.176;2022-11-20T04:46:56;18.95;;;11.70;;
27269;SDS011;14769;56.934;24.176;2022-11-20T04:48:05;18.95;;;11.88;;
27269;SDS011;14769;56.934;24.176;2022-11-20T04:49:10;16.95;;;10.98;;
27269;SDS011;14769;56.934;24.176;2022-11-20T04:50:14;19.10;;;11.63;;
27269;SDS011;14769;56.934;24.176;2022-11-20T04:51:18;18.52;;;12.02;;
27269;SDS011;14769;56.934;24.176;2022-11-20T04:52:22;20.35;;;12.55;;
27269;SDS011;14769;56.934;24.176;2022-11-20T04:53:25;21.90;;;14.45;;
27269;SDS011;14769;56.934;24.176;2022-11-20T04:54:29;24.30;;;14.95;;
27269;SDS011;14769;56.934;24.176;2022-11-20T04:55:32;22.02;;;14.55;;
27269;SDS011;14769;56.934;24.176;2022-11-20T04:56:36;24.95;;;15.07;;
27269;SDS011;14769;56.934;24.176;2022-11-20T04:57:39;26.98;;;15.15;;
27269;SDS011;14769;56.934;24.176;2022-11-20T04:58:41;26.52;;;15.15;;
27269;SDS011;14769;56.934;24.176;2022-11-20T04:59:45;22.50;;;13.77;;
27269;SDS011;14769;56.934;24.176;2022-11-20T05:00:49;22.83;;;13.15;;
27269;SDS011;14769;56.934;24.176;2022-11-20T05:02:03;23.85;;;14.32;;
27269;SDS011;14769;56.934;24.176;2022-11-20T05:03:14;22.75;;;13.95;;
27269;SDS011;14769;56.934;24.176;2022-11-20T05:04:18;25.13;;;14.82;;
27269;SDS011;14769;56.934;24.176;2022-11-20T05:05:23;22.95;;;14.80;;
27269;SDS011;14769;56.934;24.176;2022-11-20T05:06:31;25.25;;;15.07;;
27269;SDS011;14769;56.934;24.176;2022-11-20T05:07:36;26.88;;;15.07;;
27269;SDS011;14769;56.934;24.176;2022-11-20T05:08:39;26.67;;;15.18;;
27269;SDS011;14769;56.934;24.176;2022-11-20T05:09:55;24.67;;;13.55;;
27269;SDS011;14769;56.934;24.176;2022-11-20T05:11:04;24.52;;;14.55;;
27269;SDS011;14769;56.934;24.176;2022-11-20T05:12:08;21.80;;;13.65;;
27269;SDS011;14769;56.934;24.176;2022-11-20T05:13:11;23.92;;;14.05;;
27269;SDS011;14769;56.934;24.176;2022-11-20T05:14:17;23.52;;;13.20;;
27269;SDS011;14769;56.934;24.176;2022-11-20T05:15:23;21.27;;;12.95;;
27269;SDS011;14769;56.934;24.176;2022-11-20T05:16:28;21.15;;;12.85;;
27269;SDS011;14769;56.934;24.176;2022-11-20T05:17:32;24.67;;;13.27;;
27269;SDS011;14769;56.934;24.176;2022-11-20T05:18:36;27.33;;;13.77;;
27269;SDS011;14769;56.934;24.176;2022-11-20T05:19:45;20.10;;;12.95;;
27269;SDS011;14769;56.934;24.176;2022-11-20T05:20:58;22.92;;;13.68;;
27269;SDS011;14769;56.934;24.176;2022-11-20T05:22:00;21.90;;;13.32;;
27269;SDS011;14769;56.934;24.176;2022-11-20T05:23:04;23.45;;;14.65;;
27269;SDS011;14769;56.934;24.176;2022-11-20T05:24:12;22.42;;;13.30;;
27269;SDS011;14769;56.934;24.176;2022-11-20T05:25:16;23.33;;;13.32;;
27269;SDS011;14769;56.934;24.176;2022-11-20T05:26:37;23.13;;;13.45;;
27269;SDS011;14769;56.934;24.176;2022-11-20T05:27:40;24.05;;;14.00;;
27269;SDS011;14769;56.934;24.176;2022-11-20T05:28:43;23.25;;;13.38;;
27269;SDS011;14769;56.934;24.176;2022-11-20T05:29:46;19.70;;;13.05;;
27269;SDS011;14769;56.934;24.176;2022-11-20T05:30:49;21.13;;;12.82;;
27269;SDS011;14769;56.934;24.176;2022-11-20T05:31:54;20.42;;;12.90;;
27269;SDS011;14769;56.934;24.176;2022-11-20T05:32:56;22.60;;;13.95;;
27269;SDS011;14769;56.934;24.176;2022-11-20T05:33:59;23.65;;;14.18;;
27269;SDS011;14769;56.934;24.176;2022-11-20T05:35:02;25.33;;;12.68;;
27269;SDS011;14769;56.934;24.176;2022-11-20T05:36:07;20.05;;;12.75;;
27269;SDS011;14769;56.934;24.176;2022-11-20T05:37:11;22.92;;;13.93;;
27269;SDS011;14769;56.934;24.176;2022-11-20T05:38:18;21.80;;;12.93;;
27269;SDS011;14769;56.934;24.176;2022-11-20T05:39:26;19.42;;;12.63;;
27269;SDS011;14769;56.934;24.176;2022-11-20T05:40:31;25.05;;;13.43;;
27269;SDS011;14769;56.934;24.176;2022-11-20T05:41:36;23.08;;;13.05;;
27269;SDS011;14769;56.934;24.176;2022-11-20T05:42:43;23.75;;;13.45;;
27269;SDS011;14769;56.934;24.176;2022-11-20T05:43:47;23.23;;;13.70;;
27269;SDS011;14769;56.934;24.176;2022-11-20T05:44:51;22.25;;;12.88;;
27269;SDS011;14769;56.934;24.176;2022-11-20T05:45:54;24.20;;;14.07;;
27269;SDS011;14769;56.934;24.176;2022-11-20T05:46:58;23.20;;;12.98;;
27269;SDS011;14769;56.934;24.176;2022-11-20T05:48:00;20.42;;;12.63;;
27269;SDS011;14769;56.934;24.176;2022-11-20T05:49:02;18.92;;;11.98;;
27269;SDS011;14769;56.934;24.176;2022-11-20T05:50:06;23.05;;;12.43;;
27269;SDS011;14769;56.934;24.176;2022-11-20T05:51:12;18.70;;;11.75;;
27269;SDS011;14769;56.934;24.176;2022-11-20T05:52:18;22.67;;;12.98;;
27269;SDS011;14769;56.934;24.176;2022-11-20T05:53:22;22.08;;;12.88;;
27269;SDS011;14769;56.934;24.176;2022-11-20T05:54:28;24.60;;;14.82;;
27269;SDS011;14769;56.934;24.176;2022-11-20T05:55:34;25.35;;;14.18;;
27269;SDS011;14769;56.934;24.176;2022-11-20T05:56:38;23.08;;;13.15;;
27269;SDS011;14769;56.934;24.176;2022-11-20T05:57:42;20.83;;;12.80;;
27269;SDS011;14769;56.934;24.176;2022-11-20T05:58:46;21.23;;;12.50;;
27269;SDS011;14769;56.934;24.176;2022-11-20T05:59:48;22.40;;;13.30;;
27269;SDS011;14769;56.934;24.176;2022-11-20T06:00:53;21.85;;;12.63;;
27269;SDS011;14769;56.934;24.176;2022-11-20T06:01:56;21.80;;;12.35;;
27269;SDS011;14769;56.934;24.176;2022-11-20T06:02:58;23.83;;;13.40;;
27269;SDS011;14769;56.934;24.176;2022-11-20T06:04:01;24.50;;;13.77;;
27269;SDS011;14769;56.934;24.176;2022-11-20T06:05:05;24.55;;;13.90;;
27269;SDS011;14769;56.934;24.176;2022-11-20T06:06:07;23.63;;;13.20;;
27269;SDS011;14769;56.934;24.176;2022-11-20T06:07:10;24.25;;;13.30;;
27269;SDS011;14769;56.934;24.176;2022-11-20T06:08:12;24.40;;;13.02;;
27269;SDS011;14769;56.934;24.176;2022-11-20T06:09:14;25.08;;;13.32;;
27269;SDS011;14769;56.934;24.176;2022-11-20T06:10:17;23.00;;;14.32;;
27269;SDS011;14769;56.934;24.176;2022-11-20T06:11:20;21.80;;;13.38;;
27269;SDS011;14769;56.934;24.176;2022-11-20T06:12:23;21.25;;;13.07;;
27269;SDS011;14769;56.934;24.176;2022-11-20T06:13:26;22.00;;;12.15;;
27269;SDS011;14769;56.934;24.176;2022-11-20T06:14:28;21.85;;;13.10;;
27269;SDS011;14769;56.934;24.176;2022-11-20T06:15:37;23.02;;;12.52;;
27269;SDS011;14769;56.934;24.176;2022-11-20T06:16:39;22.80;;;12.57;;
27269;SDS011;14769;56.934;24.176;2022-11-20T06:17:42;22.00;;;12.52;;
27269;SDS011;14769;56.934;24.176;2022-11-20T06:18:44;20.10;;;12.00;;
27269;SDS011;14769;56.934;24.176;2022-11-20T06:19:46;22.30;;;11.93;;
27269;SDS011;14769;56.934;24.176;2022-11-20T06:20:48;21.77;;;12.68;;
27269;SDS011;14769;56.934;24.176;2022-11-20T06:21:51;22.10;;;12.55;;
27269;SDS011;14769;56.934;24.176;2022-11-20T06:22:53;21.13;;;12.88;;
27269;SDS011;14769;56.934;24.176;2022-11-20T06:23:56;22.25;;;12.57;;
27269;SDS011;14769;56.934;24.176;2022-11-20T06:24:59;24.08;;;12.50;;
27269;SDS011;14769;56.934;24.176;2022-11-20T06:26:02;22.42;;;11.95;;
27269;SDS011;14769;56.934;24.176;2022-11-20T06:27:11;20.05;;;11.32;;
27269;SDS011;14769;56.934;24.176;2022-11-20T06:28:16;21.52;;;11.85;;
27269;SDS011;14769;56.934;24.176;2022-11-20T06:29:19;23.23;;;12.48;;
27269;SDS011;14769;56.934;24.176;2022-11-20T06:30:22;22.20;;;12.55;;
27269;SDS011;14769;56.934;24.176;2022-11-20T06:31:25;21.67;;;12.38;;
27269;SDS011;14769;56.934;24.176;2022-11-20T06:32:29;18.83;;;11.73;;
27269;SDS011;14769;56.934;24.176;2022-11-20T06:33:32;19.10;;;11.88;;
27269;SDS011;14769;56.934;24.176;2022-11-20T06:34:36;20.85;;;11.85;;
27269;SDS011;14769;56.934;24.176;2022-11-20T06:35:39;21.05;;;11.50;;
27269;SDS011;14769;56.934;24.176;2022-11-20T06:36:41;21.83;;;11.88;;
27269;SDS011;14769;56.934;24.176;2022-11-20T06:37:43;21.05;;;12.52;;
27269;SDS011;14769;56.934;24.176;2022-11-20T06:38:45;19.98;;;12.27;;
27269;SDS011;14769;56.934;24.176;2022-11-20T06:39:47;21.65;;;12.63;;
27269;SDS011;14769;56.934;24.176;2022-11-20T06:40:50;21.90;;;13.00;;
27269;SDS011;14769;56.934;24.176;2022-11-20T06:41:52;22.95;;;12.95;;
27269;SDS011;14769;56.934;24.176;2022-11-20T06:42:59;22.88;;;14.18;;
27269;SDS011;14769;56.934;24.176;2022-11-20T06:44:03;21.52;;;12.88;;
27269;SDS011;14769;56.934;24.176;2022-11-20T06:45:06;21.95;;;12.45;;
27269;SDS011;14769;56.934;24.176;2022-11-20T06:46:11;22.63;;;12.55;;
27269;SDS011;14769;56.934;24.176;2022-11-20T06:47:15;21.30;;;11.60;;
27269;SDS011;14769;56.934;24.176;2022-11-20T06:48:17;21.23;;;12.80;;
27269;SDS011;14769;56.934;24.176;2022-11-20T06:49:18;20.75;;;11.77;;
27269;SDS011;14769;56.934;24.176;2022-11-20T06:50:21;20.05;;;12.27;;
27269;SDS011;14769;56.934;24.176;2022-11-20T06:51:23;18.85;;;10.85;;
27269;SDS011;14769;56.934;24.176;2022-11-20T06:52:26;20.75;;;11.32;;
27269;SDS011;14769;56.934;24.176;2022-11-20T06:53:30;19.80;;;11.43;;
27269;SDS011;14769;56.934;24.176;2022-11-20T06:54:32;19.48;;;10.85;;
27269;SDS011;14769;56.934;24.176;2022-11-20T06:55:34;18.77;;;10.95;;
27269;SDS011;14769;56.934;24.176;2022-11-20T06:56:36;19.58;;;11.68;;
27269;SDS011;14769;56.934;24.176;2022-11-20T06:57:39;20.05;;;11.32;;
27269;SDS011;14769;56.934;24.176;2022-11-20T06:58:42;26.02;;;12.88;;
27269;SDS011;14769;56.934;24.176;2022-11-20T06:59:44;22.35;;;11.68;;
27269;SDS011;14769;56.934;24.176;2022-11-20T07:00:49;21.88;;;11.73;;
27269;SDS011;14769;56.934;24.176;2022-11-20T07:02:02;20.08;;;11.88;;
27269;SDS011;14769;56.934;24.176;2022-11-20T07:03:07;18.42;;;10.77;;
27269;SDS011;14769;56.934;24.176;2022-11-20T07:04:18;21.20;;;12.27;;
27269;SDS011;14769;56.934;24.176;2022-11-20T07:05:22;21.63;;;11.85;;
27269;SDS011;14769;56.934;24.176;2022-11-20T07:06:27;19.88;;;11.98;;
27269;SDS011;14769;56.934;24.176;2022-11-20T07:07:30;21.00;;;11.52;;
27269;SDS011;14769;56.934;24.176;2022-11-20T07:08:32;19.40;;;11.52;;
27269;SDS011;14769;56.934;24.176;2022-11-20T07:09:36;18.75;;;11.13;;
27269;SDS011;14769;56.934;24.176;2022-11-20T07:10:38;18.45;;;11.30;;
27269;SDS011;14769;56.934;24.176;2022-11-20T07:11:45;19.35;;;11.32;;
27269;SDS011;14769;56.934;24.176;2022-11-20T07:13:00;18.05;;;11.30;;
27269;SDS011;14769;56.934;24.176;2022-11-20T07:14:04;19.40;;;11.65;;
27269;SDS011;14769;56.934;24.176;2022-11-20T07:15:07;20.00;;;10.82;;
27269;SDS011;14769;56.934;24.176;2022-11-20T07:16:12;20.35;;;11.45;;
27269;SDS011;14769;56.934;24.176;2022-11-20T07:17:16;16.98;;;10.38;;
27269;SDS011;14769;56.934;24.176;2022-11-20T07:18:21;20.13;;;11.18;;
27269;SDS011;14769;56.934;24.176;2022-11-20T07:19:23;21.42;;;11.25;;
27269;SDS011;14769;56.934;24.176;2022-11-20T07:20:27;18.02;;;11.05;;
27269;SDS011;14769;56.934;24.176;2022-11-20T07:21:30;17.75;;;11.13;;
27269;SDS011;14769;56.934;24.176;2022-11-20T07:22:34;19.13;;;11.10;;
27269;SDS011;14769;56.934;24.176;2022-11-20T07:23:37;19.27;;;11.40;;
27269;SDS011;14769;56.934;24.176;2022-11-20T07:24:39;20.83;;;11.27;;
27269;SDS011;14769;56.934;24.176;2022-11-20T07:25:46;18.75;;;11.88;;
27269;SDS011;14769;56.934;24.176;2022-11-20T07:26:48;20.60;;;11.45;;
27269;SDS011;14769;56.934;24.176;2022-11-20T07:27:50;20.20;;;12.57;;
27269;SDS011;14769;56.934;24.176;2022-11-20T07:28:55;19.63;;;11.45;;
27269;SDS011;14769;56.934;24.176;2022-11-20T07:29:57;19.10;;;11.70;;
27269;SDS011;14769;56.934;24.176;2022-11-20T07:31:05;19.70;;;11.20;;